Time;durP1;ratioP1;P1;durP2;ratioP2;P2;SDS_P1;SDS_P2;PMS_P1;PMS_P2;Temp;Humidity;BMP_temperature;BMP_pressure;BME280_temperature;BME280_humidity;BME280_pressure;Samples;Min_cycle;Max_cycle;Signal;HPM_P1;HPM_P2
2023/04/05 16:33:17;;;;;;;;;;;;;;;18.83;17.37;98301.19;6094572;23;21241;31
2023/04/05 16:35:42;;;;;;;;;;;;;;;18.80;16.96;98301.50;4965797;28;19962;-62
2023/04/05 16:38:07;;;;;;;;;;;;;;;18.39;17.41;98297.66;4969740;28;19961;-62
2023/04/05 16:40:33;;;;;;;;;;;;;;;18.36;17.17;98300.59;4989316;28;19913;-62
2023/04/05 16:42:58;;;;;;;;;;;;;;;18.06;17.46;98310.59;4978647;28;20422;-62
2023/04/05 16:45:24;;;;;;;;;;;;;;;17.70;18.04;98312.31;4967944;28;19925;-63
2023/04/05 16:47:49;;;;;;;;;;;;;;;17.60;21.09;98312.38;4970187;28;20280;-61
2023/04/05 16:50:15;;;;;;;;;;;;;;;17.38;18.99;98318.03;4966349;28;20080;-61
2023/04/05 16:52:40;;;;;;;;;;;;;;;17.50;20.05;98316.88;4968767;28;19925;-61
2023/04/05 16:55:05;;;;;;;;;;;;;;;17.29;19.09;98315.28;4959637;28;19923;-61
2023/04/05 16:57:31;;;;;;;;;;;;;;;16.95;18.65;98312.31;4972982;28;20005;-61
2023/04/05 16:59:56;;;;;;;;;;;;;;;16.32;19.16;98315.41;4963434;28;19924;-61
2023/04/05 17:02:22;;;;;;;;;;;;;;;15.98;19.56;98316.75;4965979;28;19926;-61
2023/04/05 17:04:47;;;;;;;;;;;;;;;15.18;20.26;98313.13;4961217;28;20391;-61
2023/04/05 17:07:12;;;;;;;;;;;;;;;14.43;21.07;98314.94;4964315;28;19974;-61
2023/04/05 17:09:37;;;;;;;;;;;;;;;14.26;21.28;98326.06;4967515;28;20372;-61
2023/04/05 17:12:03;;;;;;;;;;;;;;;13.73;21.90;98324.16;4971876;28;20311;-61
2023/04/05 17:14:28;;;;;;;;;;;;;;;13.31;22.41;98320.44;4965151;28;19922;-61
2023/04/05 17:16:53;;;;;;;;;;;;;;;12.90;22.58;98329.69;4973764;28;19936;-63
2023/04/05 17:19:19;;;;;;;;;;;;;;;12.34;23.02;98326.91;4973190;28;19914;-63
2023/04/05 17:21:46;;;;;;;;;;;;;;;12.16;24.31;98328.25;4972521;28;20363;-61
2023/04/05 17:24:11;;;;;;;;;;;;;;;11.98;24.64;98326.03;4972330;28;20291;-61
2023/04/05 17:26:36;;;;;;;;;;;;;;;11.75;24.88;98329.44;4973947;28;19918;-61
2023/04/05 17:29:02;;;;;;;;;;;;;;;11.60;25.25;98332.19;4974337;28;19925;-58
2023/04/05 17:31:27;;;;;;;;;;;;;;;11.19;25.69;98331.63;4974054;28;20335;-61
2023/04/05 17:33:52;;;;;;;;;;;;;;;11.02;26.03;98331.00;4972510;28;19922;-62
2023/04/05 17:36:17;;;;;;;;;;;;;;;10.85;25.82;98328.69;4973738;28;20008;-62
2023/04/05 17:38:43;;;;;;;;;;;;;;;10.49;26.71;98332.81;4973758;28;19922;-61
2023/04/05 17:41:08;;;;;;;;;;;;;;;10.37;26.98;98336.25;4974028;28;20364;-61
2023/04/05 17:43:33;;;;;;;;;;;;;;;10.25;27.33;98335.22;4972678;28;19918;-62
2023/04/05 17:45:59;;;;;;;;;;;;;;;10.15;27.32;98340.25;4973046;28;20475;-61
2023/04/05 17:48:24;;;;;;;;;;;;;;;9.98;27.94;98340.50;4972760;28;19918;-61
2023/04/05 17:50:49;;;;;;;;;;;;;;;9.86;27.84;98343.88;4973740;28;20014;-62
2023/04/05 17:53:15;;;;;;;;;;;;;;;9.75;28.30;98334.91;4971646;28;19977;-61
2023/04/05 17:55:40;;;;;;;;;;;;;;;9.62;28.33;98354.94;4971996;28;19918;-63
2023/04/05 17:58:05;;;;;;;;;;;;;;;9.46;28.73;98351.59;4972380;28;20416;-60
2023/04/05 18:00:31;;;;;;;;;;;;;;;9.29;28.84;98344.81;4973698;28;20008;-62
2023/04/05 18:02:56;;;;;;;;;;;;;;;9.26;29.18;98345.81;4973050;28;19957;-63
2023/04/05 18:05:21;;;;;;;;;;;;;;;9.22;29.66;98344.34;4972884;28;20358;-64
2023/04/05 18:07:47;;;;;;;;;;;;;;;9.12;29.88;98350.19;4973232;28;19965;-63
2023/04/05 18:10:12;;;;;;;;;;;;;;;9.03;30.31;98349.81;4973674;28;19918;-63
2023/04/05 18:12:37;;;;;;;;;;;;;;;8.98;30.79;98348.41;4972147;28;19926;-62
2023/04/05 18:15:03;;;;;;;;;;;;;;;8.87;30.35;98354.28;4972814;28;20388;-63
2023/04/05 18:17:28;;;;;;;;;;;;;;;8.85;30.71;98350.09;4973304;28;19937;-64
2023/04/05 18:19:53;;;;;;;;;;;;;;;8.77;30.20;98353.13;4973538;28;20379;-65
2023/04/05 18:22:18;;;;;;;;;;;;;;;8.66;30.97;98356.38;4968929;28;19921;-63
2023/04/05 18:24:44;;;;;;;;;;;;;;;8.49;30.72;98365.19;4971412;28;19919;-64
2023/04/05 18:27:09;;;;;;;;;;;;;;;8.35;31.74;98361.66;4972097;28;19965;-64
2023/04/05 18:29:38;;;;;;;;;;;;;;;8.29;31.49;98363.72;4972405;28;19914;-64
2023/04/05 18:32:04;;;;;;;;;;;;;;;8.23;31.98;98364.06;4973171;28;20391;-64
2023/04/05 18:34:29;;;;;;;;;;;;;;;8.20;32.55;98366.00;4971224;28;19918;-64
2023/04/05 18:36:54;;;;;;;;;;;;;;;8.12;33.17;98365.56;4972801;28;19918;-65
2023/04/05 18:39:20;;;;;;;;;;;;;;;8.06;34.16;98372.00;4971876;28;19921;-62
2023/04/05 18:41:45;;;;;;;;;;;;;;;7.95;34.57;98376.94;4954857;28;19922;-63
2023/04/05 18:44:10;;;;;;;;;;;;;;;7.90;33.55;98376.38;4967702;28;20014;-63
2023/04/05 18:46:37;;;;;;;;;;;;;;;7.80;34.74;98379.47;4969431;28;19922;-64
2023/04/05 18:49:02;;;;;;;;;;;;;;;7.73;35.94;98380.75;4972580;28;19918;-63
2023/04/05 18:51:27;;;;;;;;;;;;;;;7.64;36.56;98385.59;4972852;28;19921;-64
2023/04/05 18:53:53;;;;;;;;;;;;;;;7.45;37.85;98388.38;4970503;28;20391;-62
2023/04/05 18:56:18;;;;;;;;;;;;;;;7.36;38.83;98387.94;4972619;28;20299;-62
2023/04/05 18:58:43;;;;;;;;;;;;;;;7.30;38.27;98387.41;4971318;28;19918;-63
2023/04/05 19:01:11;;;;;;;;;;;;;;;7.22;39.03;98390.41;4971054;28;19919;-64
2023/04/05 19:03:37;;;;;;;;;;;;;;;7.10;39.72;98389.28;4957558;28;19941;-62
2023/04/05 19:06:02;;;;;;;;;;;;;;;7.00;39.70;98393.28;4982831;28;20544;-63
2023/04/05 19:08:27;;;;;;;;;;;;;;;6.90;39.61;98395.50;4972010;28;20361;-63
2023/04/05 19:10:52;;;;;;;;;;;;;;;6.80;40.80;98394.28;4976112;28;19969;-63
2023/04/05 19:13:18;;;;;;;;;;;;;;;6.73;40.69;98397.28;4975428;28;19918;-64
2023/04/05 19:15:44;;;;;;;;;;;;;;;6.66;41.05;98391.53;4976197;28;19918;-63
2023/04/05 19:18:09;;;;;;;;;;;;;;;6.60;40.95;98397.03;4975399;28;19914;-64
2023/04/05 19:20:35;;;;;;;;;;;;;;;6.47;41.04;98402.03;4972921;28;19921;-64
2023/04/05 19:23:00;;;;;;;;;;;;;;;6.41;41.17;98397.94;4975944;28;19918;-64
2023/04/05 19:25:26;;;;;;;;;;;;;;;6.34;41.16;98395.72;4971652;28;20564;-64
2023/04/05 19:27:51;;;;;;;;;;;;;;;6.25;41.81;98404.81;4974712;28;19925;-64
2023/04/05 19:30:16;;;;;;;;;;;;;;;6.16;41.73;98406.09;4975862;28;20364;-63
2023/04/05 19:32:41;;;;;;;;;;;;;;;6.15;42.45;98406.16;4969621;28;20354;-63
2023/04/05 19:35:10;;;;;;;;;;;;;;;6.04;42.60;98403.22;4971332;28;19922;-63
2023/04/05 19:37:35;;;;;;;;;;;;;;;5.98;43.30;98404.34;4976131;28;20348;-63
2023/04/05 19:40:00;;;;;;;;;;;;;;;5.90;43.63;98406.44;4974377;28;20415;-63
2023/04/05 19:42:26;;;;;;;;;;;;;;;5.85;43.84;98409.28;4973703;28;19925;-63
2023/04/05 19:44:53;;;;;;;;;;;;;;;5.74;44.11;98406.28;4971123;28;19918;-63
2023/04/05 19:47:21;;;;;;;;;;;;;;;5.64;44.70;98405.91;4969447;28;20380;-63
2023/04/05 19:49:47;;;;;;;;;;;;;;;5.55;44.97;98408.06;4967363;28;19914;-63
2023/04/05 19:52:13;;;;;;;;;;;;;;;5.51;44.99;98404.75;4966963;28;20380;-63
2023/04/05 19:54:39;;;;;;;;;;;;;;;5.45;44.76;98403.25;4987173;28;19918;-63
2023/04/05 19:57:04;;;;;;;;;;;;;;;5.32;45.28;98398.69;4974442;28;20363;-63
2023/04/05 19:59:30;;;;;;;;;;;;;;;5.23;45.10;98395.59;4977671;28;19970;-63
2023/04/05 20:01:56;;;;;;;;;;;;;;;5.26;44.84;98398.94;4975109;28;19925;-63
2023/04/05 20:04:22;;;;;;;;;;;;;;;5.18;45.06;98400.13;4972355;28;20012;-63
2023/04/05 20:06:56;;;;;;;;;;;;;;;5.15;45.23;98396.81;4974001;28;20049;-63
2023/04/05 20:09:22;;;;;;;;;;;;;;;5.04;45.25;98392.09;4968446;28;20016;-63
2023/04/05 20:11:49;;;;;;;;;;;;;;;5.01;45.55;98389.59;4966652;28;20402;-63
2023/04/05 20:14:15;;;;;;;;;;;;;;;4.94;45.82;98396.81;4947399;28;19918;-63
2023/04/05 20:16:43;;;;;;;;;;;;;;;4.94;46.04;98393.38;4971602;28;20408;-63
2023/04/05 20:19:08;;;;;;;;;;;;;;;4.85;46.31;98393.75;4969998;28;20039;-63
2023/04/05 20:21:33;;;;;;;;;;;;;;;4.80;46.26;98390.53;4974051;28;19961;-63
2023/04/05 20:23:59;;;;;;;;;;;;;;;4.79;46.67;98389.69;4965061;28;19958;-63
2023/04/05 20:26:30;;;;;;;;;;;;;;;4.76;47.05;98395.84;4974558;28;19926;-63
2023/04/05 20:28:56;;;;;;;;;;;;;;;4.65;47.64;98397.22;4972762;28;20296;-63
2023/04/05 20:31:22;;;;;;;;;;;;;;;4.57;48.35;98399.28;4973039;28;19918;-63
2023/04/05 20:33:48;;;;;;;;;;;;;;;4.47;49.52;98401.41;4971627;28;19973;-63
2023/04/05 20:36:32;;;;;;;;;;;;;;;4.40;50.21;98403.41;4962512;28;19919;-63
2023/04/05 20:38:57;;;;;;;;;;;;;;;4.50;50.88;98407.31;4959432;28;20001;-64
2023/04/05 20:41:23;;;;;;;;;;;;;;;4.46;51.20;98403.16;4970201;28;20016;-63
2023/04/05 20:43:48;;;;;;;;;;;;;;;4.36;50.32;98395.81;4971328;28;20029;-63
2023/04/05 20:46:14;;;;;;;;;;;;;;;4.60;57.71;98396.56;4969825;28;19922;-64
2023/04/05 20:48:40;;;;;;;;;;;;;;;4.90;55.14;98394.44;4975011;28;19914;-64
2023/04/05 20:51:05;;;;;;;;;;;;;;;5.29;58.05;98394.44;4972273;28;19914;-64
2023/04/05 20:53:31;;;;;;;;;;;;;;;5.54;57.30;98398.56;4972488;28;20387;-64
2023/04/05 20:55:58;;;;;;;;;;;;;;;5.76;55.32;98391.47;4972373;28;20290;-64
2023/04/05 20:58:23;;;;;;;;;;;;;;;5.87;59.63;98391.81;4970389;28;19922;-64
2023/04/05 21:00:48;;;;;;;;;;;;;;;6.03;57.93;98396.34;4974890;28;20442;-64
2023/04/05 21:03:13;;;;;;;;;;;;;;;6.08;53.52;98396.97;4973656;28;19937;-64
2023/04/05 21:05:39;;;;;;;;;;;;;;;6.05;53.88;98392.72;4973341;28;19925;-65
2023/04/05 21:08:04;;;;;;;;;;;;;;;6.10;53.39;98397.75;4974728;28;19914;-65
2023/04/05 21:10:30;;;;;;;;;;;;;;;6.12;56.90;98395.88;4974646;28;19914;-65
2023/04/05 21:12:55;;;;;;;;;;;;;;;6.23;57.93;98396.25;4974539;28;19918;-64
2023/04/05 21:15:20;;;;;;;;;;;;;;;6.23;55.96;98396.25;4973753;28;19921;-65
2023/04/05 21:17:45;;;;;;;;;;;;;;;6.35;56.78;98400.00;4974121;28;19918;-64
2023/04/05 21:20:10;;;;;;;;;;;;;;;6.38;56.36;98400.69;4970149;28;19917;-65
2023/04/05 21:22:37;;;;;;;;;;;;;;;6.48;56.40;98392.44;4973936;28;20399;-65
2023/04/05 21:25:04;;;;;;;;;;;;;;;6.42;54.10;98389.22;4973818;28;19995;-65
2023/04/05 21:27:29;;;;;;;;;;;;;;;6.37;56.49;98391.22;4971815;28;19929;-65
2023/04/05 21:29:55;;;;;;;;;;;;;;;6.20;52.26;98388.56;4974420;28;19914;-65
2023/04/05 21:32:20;;;;;;;;;;;;;;;6.13;55.43;98397.59;4973016;28;19964;-65
2023/04/05 21:34:45;;;;;;;;;;;;;;;6.07;54.70;98392.69;4973392;28;19918;-65
2023/04/05 21:37:10;;;;;;;;;;;;;;;6.06;56.25;98397.03;4973202;28;19918;-65
2023/04/05 21:39:36;;;;;;;;;;;;;;;6.06;54.05;98401.41;4973064;28;19914;-65
2023/04/05 21:42:02;;;;;;;;;;;;;;;6.03;54.24;98399.78;4974218;28;20347;-64
2023/04/05 21:44:27;;;;;;;;;;;;;;;5.96;56.62;98401.00;4973640;28;19924;-64
2023/04/05 21:46:52;;;;;;;;;;;;;;;6.04;55.91;98398.88;4972884;28;19926;-65
2023/04/05 21:49:17;;;;;;;;;;;;;;;6.14;57.48;98401.88;4973870;28;19914;-64
2023/04/05 21:51:43;;;;;;;;;;;;;;;6.17;57.38;98399.13;4971939;28;20421;-64
2023/04/05 21:54:08;;;;;;;;;;;;;;;5.97;53.84;98394.03;4973773;28;19914;-65
2023/04/05 21:56:33;;;;;;;;;;;;;;;5.92;53.93;98399.44;4970492;28;19918;-64
2023/04/05 21:58:58;;;;;;;;;;;;;;;5.99;56.13;98395.66;4973543;28;19953;-65
2023/04/05 22:01:24;;;;;;;;;;;;;;;5.98;54.99;98399.16;4973829;28;19914;-65
2023/04/05 22:03:49;;;;;;;;;;;;;;;6.05;55.16;98395.34;4973668;28;19921;-64
2023/04/05 22:06:14;;;;;;;;;;;;;;;5.90;52.13;98398.63;4970167;28;19922;-64
2023/04/05 22:08:40;;;;;;;;;;;;;;;5.84;55.97;98396.31;4973012;28;19918;-65
2023/04/05 22:11:05;;;;;;;;;;;;;;;5.73;54.98;98394.22;4968039;28;19926;-64
2023/04/05 22:13:30;;;;;;;;;;;;;;;5.84;57.52;98409.31;4972953;28;19918;-64
2023/04/05 22:15:55;;;;;;;;;;;;;;;5.94;57.84;98395.84;4972011;28;19918;-64
2023/04/05 22:18:22;;;;;;;;;;;;;;;5.91;55.83;98400.31;4973488;28;19915;-64
2023/04/05 22:20:47;;;;;;;;;;;;;;;5.96;55.81;98402.75;4973797;28;19914;-64
2023/04/05 22:23:13;;;;;;;;;;;;;;;6.00;56.33;98401.69;4973504;28;20029;-64
2023/04/05 22:25:38;;;;;;;;;;;;;;;5.75;53.72;98408.00;4972274;28;19992;-64
2023/04/05 22:28:03;;;;;;;;;;;;;;;5.83;58.09;98405.88;4972937;28;19918;-65
2023/04/05 22:30:28;;;;;;;;;;;;;;;5.71;57.12;98409.91;4972961;28;19926;-64
2023/04/05 22:32:54;;;;;;;;;;;;;;;5.77;54.93;98407.94;4973093;28;19950;-65
2023/04/05 22:35:19;;;;;;;;;;;;;;;5.75;56.87;98401.94;4971881;28;19924;-64
2023/04/05 22:37:44;;;;;;;;;;;;;;;5.59;57.67;98407.00;4972609;28;19926;-65
2023/04/05 22:40:10;;;;;;;;;;;;;;;5.81;58.70;98415.50;4973194;28;20376;-65
2023/04/05 22:42:37;;;;;;;;;;;;;;;5.81;58.10;98415.50;4973282;28;20033;-65
2023/04/05 22:45:02;;;;;;;;;;;;;;;5.69;57.81;98413.50;4972962;28;19921;-64
2023/04/05 22:47:28;;;;;;;;;;;;;;;5.66;55.81;98409.25;4983131;28;19922;-65
2023/04/05 22:49:53;;;;;;;;;;;;;;;5.72;57.26;98408.97;4972422;28;19925;-64
2023/04/05 22:52:18;;;;;;;;;;;;;;;5.65;54.53;98409.34;4973156;28;20371;-65
2023/04/05 22:54:43;;;;;;;;;;;;;;;5.62;56.78;98412.06;4973265;28;19921;-65
2023/04/05 22:57:09;;;;;;;;;;;;;;;5.64;56.51;98405.03;4971825;28;20426;-64
2023/04/05 22:59:34;;;;;;;;;;;;;;;5.58;58.54;98405.31;4973182;28;19925;-65
2023/04/05 23:01:59;;;;;;;;;;;;;;;5.56;55.90;98412.34;4973150;28;19918;-65
2023/04/05 23:04:25;;;;;;;;;;;;;;;5.52;57.60;98397.78;4973398;28;19918;-64
2023/04/05 23:06:50;;;;;;;;;;;;;;;5.40;56.10;98410.44;4964973;28;20008;-65
2023/04/05 23:09:15;;;;;;;;;;;;;;;5.46;56.19;98407.53;4973032;28;20367;-64
2023/04/05 23:11:41;;;;;;;;;;;;;;;5.58;59.86;98410.53;4973118;28;19918;-64
2023/04/05 23:14:06;;;;;;;;;;;;;;;5.51;55.21;98403.91;4973012;28;20151;-64
2023/04/05 23:16:32;;;;;;;;;;;;;;;5.51;57.75;98409.13;4971664;28;20005;-64
2023/04/05 23:18:57;;;;;;;;;;;;;;;5.57;57.96;98406.22;4972865;28;20017;-64
2023/04/05 23:21:22;;;;;;;;;;;;;;;5.53;58.18;98412.47;4973394;28;20299;-65
2023/04/05 23:23:47;;;;;;;;;;;;;;;5.50;57.44;98410.00;4972618;28;19914;-64
2023/04/05 23:26:13;;;;;;;;;;;;;;;5.55;58.36;98405.47;4971561;28;19969;-64
2023/04/05 23:28:38;;;;;;;;;;;;;;;5.55;57.88;98405.47;4972850;28;19918;-65
2023/04/05 23:31:03;;;;;;;;;;;;;;;5.54;59.01;98408.97;4972876;28;19925;-64
2023/04/05 23:33:28;;;;;;;;;;;;;;;5.59;59.28;98407.84;4972695;28;19914;-65
2023/04/05 23:35:54;;;;;;;;;;;;;;;5.60;58.23;98403.47;4971688;28;19922;-64
2023/04/05 23:38:19;;;;;;;;;;;;;;;5.43;58.56;98402.47;4972686;28;19915;-64
2023/04/05 23:40:45;;;;;;;;;;;;;;;5.54;59.57;98398.56;4972861;28;20380;-64
2023/04/05 23:43:10;;;;;;;;;;;;;;;5.50;56.94;98397.00;4955478;28;19914;-64
2023/04/05 23:45:35;;;;;;;;;;;;;;;5.46;57.88;98398.91;4972952;28;19918;-65
2023/04/05 23:48:00;;;;;;;;;;;;;;;5.42;57.48;98403.41;4975745;28;19973;-64
2023/04/05 23:50:26;;;;;;;;;;;;;;;5.45;57.27;98400.66;4975019;28;19929;-65
2023/04/05 23:52:51;;;;;;;;;;;;;;;5.39;58.65;98398.31;4975816;28;19918;-64
2023/04/05 23:55:16;;;;;;;;;;;;;;;5.39;58.57;98402.69;4975398;28;20291;-65
2023/04/05 23:57:42;;;;;;;;;;;;;;;5.37;58.32;98401.94;4975469;28;19918;-64
